EGOW

RAF Woodvale Airport

Southport, United Kingdom
METAR EGOW 211150Z 26023G33KT 7000 RA SCT010 BKN025 12/07 Q1002 GRN
Observed Flight Rules
Sep-21 @ 11:50 UTC (16 hours ago) Marginal Visual Flight Rules
Wind Visibility Clouds Conditions
260° at 23 knots
 Gusting to 33 knots
7,001 meters
Temperatures Readings
Current 12°C / 54°F
Dewpoint 7°C / 45°F
Humidity 72%
Altimeter 29.59" Hg
Pressure 1002 hPa
Elevation 12
METAR EGOW 211150Z 26023G33KT 7000 RA SCT010 BKN025 12/07 Q1002 GRN
Observed Flight Rules
Sep-21 @ 11:50 UTC
(16 hours ago)
MVFR
Wind Visibility
260° at 23 knots
 Gusting to 33 knots
7,001 meters
Clouds
Conditions
Temperature Dewpoint
12°C / 54°F 7°C / 45°F
Humidity Altimeter Pressure
72% 29.59" Hg 1002 hPa